Time;durP1;ratioP1;P1;durP2;ratioP2;P2;SDS_P1;SDS_P2;PMS_P1;PMS_P2;Temp;Humidity;BMP_temperature;BMP_pressure;BME280_temperature;BME280_humidity;BME280_pressure;Samples;Min_cycle;Max_cycle;Signal;HPM_P1;HPM_P2
2022/11/22 00:00:09;;;;;;;1.95;0.85;;;12.10;73.70;;;;;;2624331;52;20930;-74
2022/11/22 00:02:38;;;;;;;2.65;0.80;;;12.10;73.70;;;;;;2371368;53;20958;-74
2022/11/22 00:05:05;;;;;;;3.55;0.60;;;12.10;73.70;;;;;;2423377;53;21019;-74
2022/11/22 00:07:31;;;;;;;3.25;0.90;;;12.10;73.70;;;;;;2591366;52;21333;-74
2022/11/22 00:09:58;;;;;;;1.35;0.60;;;12.20;73.70;;;;;;2506341;52;21016;-74
2022/11/22 00:12:25;;;;;;;2.20;0.70;;;12.20;73.60;;;;;;2349287;53;21841;-75
2022/11/22 00:14:51;;;;;;;1.80;0.70;;;12.20;73.60;;;;;;2599951;52;20926;-75
2022/11/22 00:17:21;;;;;;;2.28;0.90;;;12.20;73.60;;;;;;2477609;52;20946;-75
2022/11/22 00:19:47;;;;;;;1.92;0.85;;;12.20;73.60;;;;;;2431449;52;21053;-74
2022/11/22 00:22:14;;;;;;;2.28;0.77;;;12.20;73.60;;;;;;2615581;52;20993;-74
2022/11/22 00:24:42;;;;;;;1.15;0.50;;;12.20;73.50;;;;;;2376145;52;20906;-74
2022/11/22 00:27:09;;;;;;;1.05;0.40;;;12.20;73.50;;;;;;2375070;53;20994;-75
2022/11/22 00:29:35;;;;;;;2.08;0.80;;;12.20;73.50;;;;;;2474038;52;20998;-74
2022/11/22 00:32:02;;;;;;;1.17;0.50;;;12.20;73.60;;;;;;2371077;53;20910;-75
2022/11/22 00:34:29;;;;;;;1.08;0.40;;;12.20;73.60;;;;;;2551761;52;21014;-74
2022/11/22 00:36:55;;;;;;;1.83;0.57;;;12.20;74.30;;;;;;2371395;53;20986;-74
2022/11/22 00:39:21;;;;;;;1.35;0.50;;;12.20;73.60;;;;;;2445981;52;20950;-75
2022/11/22 00:41:49;;;;;;;1.25;0.60;;;12.20;73.60;;;;;;2623999;52;20915;-75
2022/11/22 00:44:16;;;;;;;1.08;0.45;;;12.20;73.60;;;;;;2587837;52;21041;-74
2022/11/22 00:46:43;;;;;;;1.73;0.50;;;12.20;73.60;;;;;;2623289;52;20903;-74
2022/11/22 00:49:11;;;;;;;1.87;0.60;;;12.20;73.60;;;;;;2624054;52;20958;-74
2022/11/22 00:51:39;;;;;;;1.65;0.60;;;12.20;73.60;;;;;;2373117;53;21715;-74
2022/11/22 00:54:07;;;;;;;1.47;0.50;;;12.20;73.60;;;;;;2409802;52;1360771;-75
2022/11/22 00:56:34;;;;;;;1.85;0.60;;;12.20;73.60;;;;;;2435795;52;20949;-74
2022/11/22 00:59:00;;;;;;;3.00;0.85;;;12.20;73.50;;;;;;2371194;53;20965;-74
2022/11/22 01:01:29;;;;;;;1.87;0.60;;;12.20;73.50;;;;;;2370540;53;20978;-75
2022/11/22 01:03:55;;;;;;;1.75;0.65;;;12.20;73.50;;;;;;2355169;53;21026;-74
2022/11/22 01:06:22;;;;;;;1.77;0.75;;;12.20;73.60;;;;;;2368127;53;20934;-74
2022/11/22 01:08:48;;;;;;;1.87;0.70;;;12.20;73.60;;;;;;2371264;53;21013;-75
2022/11/22 01:11:15;;;;;;;1.12;0.45;;;12.20;73.60;;;;;;2371870;53;21014;-75
2022/11/22 01:13:41;;;;;;;1.50;0.60;;;12.20;73.60;;;;;;2552920;52;20894;-74
2022/11/22 01:16:08;;;;;;;1.83;0.77;;;12.30;73.60;;;;;;2363341;53;20982;-74
2022/11/22 01:18:35;;;;;;;2.25;0.70;;;12.20;73.50;;;;;;2449626;53;20903;-74
2022/11/22 01:21:03;;;;;;;2.25;0.60;;;12.20;73.60;;;;;;2371678;53;20910;-74
2022/11/22 01:23:31;;;;;;;2.00;0.70;;;12.30;73.60;;;;;;2372433;52;20978;-74
2022/11/22 01:25:58;;;;;;;2.28;0.60;;;12.20;73.60;;;;;;2354252;53;20990;-74
2022/11/22 01:28:24;;;;;;;2.15;0.80;;;12.20;73.60;;;;;;2368006;53;21049;-75
2022/11/22 01:30:51;;;;;;;1.95;0.60;;;12.30;74.40;;;;;;2370985;53;20986;-74
2022/11/22 01:33:33;;;;;;;2.65;0.68;;;12.30;73.70;;;;;;2354187;53;20918;-74
2022/11/22 01:36:02;;;;;;;1.62;0.57;;;12.30;73.30;;;;;;2373701;53;20918;-74
2022/11/22 01:38:29;;;;;;;2.25;0.80;;;12.30;73.60;;;;;;2480726;52;20958;-75
2022/11/22 01:40:58;;;;;;;1.30;0.55;;;12.30;73.60;;;;;;2377809;52;20923;-74
2022/11/22 01:43:26;;;;;;;3.83;0.73;;;12.30;73.50;;;;;;2624165;52;21022;-74
2022/11/22 01:46:06;;;;;;;3.03;1.00;;;12.30;73.50;;;;;;2370679;53;20902;-75
2022/11/22 01:48:49;;;;;;;1.83;0.70;;;12.30;73.10;;;;;;2357921;53;21860;-74
2022/11/22 01:51:27;;;;;;;1.58;0.60;;;12.30;73.30;;;;;;2387571;53;20918;-75
2022/11/22 01:53:59;;;;;;;1.92;0.60;;;12.30;73.10;;;;;;2443842;52;20978;-74
2022/11/22 01:56:25;;;;;;;4.28;0.77;;;12.30;73.30;;;;;;2371666;53;20950;-74
2022/11/22 01:58:55;;;;;;;1.80;0.73;;;12.30;73.40;;;;;;2371319;53;21503;-75
2022/11/22 02:01:22;;;;;;;2.80;0.82;;;12.30;73.30;;;;;;2371458;53;20934;-75
2022/11/22 02:03:48;;;;;;;1.65;0.57;;;12.30;73.30;;;;;;2623316;52;20969;-74
2022/11/22 02:06:15;;;;;;;3.05;0.80;;;12.30;73.30;;;;;;2358736;52;20930;-74
2022/11/22 02:09:07;;;;;;;2.53;0.73;;;12.30;73.30;;;;;;2466078;52;20990;-74
2022/11/22 02:11:35;;;;;;;1.95;0.70;;;12.30;73.10;;;;;;2371342;53;21360;-74
2022/11/22 02:14:01;;;;;;;3.78;0.88;;;12.30;73.30;;;;;;2370803;53;21021;-74
2022/11/22 02:16:28;;;;;;;2.67;0.75;;;12.30;73.30;;;;;;2623907;52;20954;-75
2022/11/22 02:18:54;;;;;;;2.83;0.70;;;12.30;73.30;;;;;;2371148;53;20917;-74
2022/11/22 02:21:21;;;;;;;2.92;0.80;;;12.20;73.20;;;;;;2399197;52;21014;-74
2022/11/22 02:24:53;;;;;;;2.72;1.00;;;12.30;73.30;;;;;;2371270;53;20922;-74
2022/11/22 02:27:20;;;;;;;2.85;0.80;;;12.20;72.50;;;;;;2619662;52;21399;-74
2022/11/22 02:29:47;;;;;;;2.47;0.73;;;12.20;73.20;;;;;;2371010;53;20922;-74
2022/11/22 02:32:13;;;;;;;3.35;0.70;;;12.20;73.20;;;;;;2527112;52;20904;-74
2022/11/22 02:34:43;;;;;;;3.35;0.90;;;12.20;73.30;;;;;;2371204;53;20907;-74
2022/11/22 02:37:11;;;;;;;1.95;0.73;;;12.20;73.20;;;;;;2352803;52;20911;-74
2022/11/22 02:39:39;;;;;;;3.10;0.82;;;12.20;73.20;;;;;;2371675;53;20930;-74
2022/11/22 02:42:07;;;;;;;2.47;0.68;;;12.30;73.30;;;;;;2371534;53;20942;-74
2022/11/22 02:44:33;;;;;;;3.05;0.80;;;12.20;73.20;;;;;;2623980;52;21403;-74
2022/11/22 02:47:00;;;;;;;2.30;0.70;;;12.20;73.20;;;;;;2526501;52;20970;-75
2022/11/22 02:49:27;;;;;;;2.30;0.75;;;12.20;73.10;;;;;;2379734;53;20938;-75
2022/11/22 02:51:53;;;;;;;3.78;0.80;;;12.20;73.10;;;;;;2371947;53;21017;-75
2022/11/22 02:54:20;;;;;;;3.90;0.90;;;12.20;73.00;;;;;;2371730;53;20923;-74
2022/11/22 02:56:46;;;;;;;3.58;0.70;;;12.20;72.90;;;;;;2407475;52;21464;-74
2022/11/22 02:59:13;;;;;;;2.97;0.88;;;12.20;72.90;;;;;;2371137;53;20930;-74
2022/11/22 03:01:39;;;;;;;4.47;1.10;;;12.20;72.90;;;;;;2624093;52;20927;-74
2022/11/22 03:04:06;;;;;;;2.47;0.77;;;12.20;72.90;;;;;;2371013;53;20930;-74
2022/11/22 03:06:34;;;;;;;2.25;0.73;;;12.20;72.90;;;;;;2624428;52;20942;-74
2022/11/22 03:09:02;;;;;;;3.28;0.90;;;12.10;73.10;;;;;;2371224;53;20999;-74
2022/11/22 03:11:28;;;;;;;3.53;0.77;;;12.10;72.80;;;;;;2492686;52;21049;-75
2022/11/22 03:13:55;;;;;;;3.12;0.80;;;12.10;73.50;;;;;;2377853;52;20954;-74
2022/11/22 03:16:21;;;;;;;2.87;1.00;;;12.20;73.00;;;;;;2557632;52;20910;-75
2022/11/22 03:18:48;;;;;;;5.43;0.88;;;12.10;72.90;;;;;;2371359;53;20981;-75
2022/11/22 03:21:14;;;;;;;3.40;0.95;;;12.10;72.90;;;;;;2413511;52;20918;-74
2022/11/22 03:23:41;;;;;;;3.33;0.70;;;12.10;72.90;;;;;;2371389;53;20990;-74
2022/11/22 03:26:10;;;;;;;3.05;0.70;;;12.10;72.90;;;;;;2371521;53;20918;-75
2022/11/22 03:28:37;;;;;;;3.53;0.80;;;12.00;72.80;;;;;;2371678;53;20935;-74
2022/11/22 03:31:05;;;;;;;2.87;0.80;;;12.00;72.90;;;;;;2379881;52;21063;-75
2022/11/22 03:33:32;;;;;;;2.60;0.80;;;12.00;72.90;;;;;;2371714;53;21018;-75
2022/11/22 03:35:59;;;;;;;2.10;0.60;;;12.00;72.90;;;;;;2388267;52;21341;-75
2022/11/22 03:38:26;;;;;;;3.70;0.98;;;12.00;73.00;;;;;;2497902;52;20921;-74
2022/11/22 03:40:52;;;;;;;2.55;0.60;;;12.00;73.00;;;;;;2447990;52;20986;-74
2022/11/22 03:43:19;;;;;;;4.70;0.75;;;12.00;73.00;;;;;;2371637;53;21439;-74
2022/11/22 03:45:46;;;;;;;4.53;0.88;;;12.10;73.10;;;;;;2516566;52;20938;-74
2022/11/22 03:48:13;;;;;;;3.33;0.70;;;12.00;73.00;;;;;;2624329;52;21634;-75
2022/11/22 03:50:42;;;;;;;4.75;0.77;;;12.00;73.00;;;;;;2371987;53;21014;-74
2022/11/22 03:53:09;;;;;;;2.87;0.77;;;12.00;72.90;;;;;;2371329;53;20978;-75
2022/11/22 03:55:35;;;;;;;4.68;0.70;;;12.00;72.90;;;;;;2623663;52;20934;-74
2022/11/22 03:58:05;;;;;;;3.80;0.75;;;12.00;73.00;;;;;;2371320;53;20953;-74
2022/11/22 04:00:32;;;;;;;2.22;0.68;;;12.00;72.90;;;;;;2623785;52;20970;-74
2022/11/22 04:02:58;;;;;;;4.15;0.82;;;12.00;73.00;;;;;;2583103;52;21002;-74
2022/11/22 04:05:25;;;;;;;4.78;1.15;;;12.00;73.00;;;;;;2371331;53;20918;-74
2022/11/22 04:07:57;;;;;;;5.03;0.80;;;12.00;73.00;;;;;;2377087;52;20966;-74
2022/11/22 04:10:39;;;;;;;4.25;0.90;;;12.00;73.00;;;;;;2371266;53;20981;-74
2022/11/22 04:13:05;;;;;;;4.37;0.82;;;12.00;72.60;;;;;;2353719;53;21027;-75
2022/11/22 04:15:32;;;;;;;3.33;0.80;;;12.00;72.90;;;;;;2369351;53;21368;-74
2022/11/22 04:17:59;;;;;;;7.43;1.17;;;12.00;72.90;;;;;;2371493;53;20946;-74
2022/11/22 04:23:19;;;;;;;3.85;0.90;;;12.00;72.80;;;;;;2343727;53;20961;-75
2022/11/22 04:25:48;;;;;;;5.80;0.82;;;12.00;72.80;;;;;;2345622;53;21445;-74
2022/11/22 04:28:15;;;;;;;2.87;0.73;;;12.00;72.70;;;;;;2402998;52;20972;-75
2022/11/22 04:33:27;;;;;;;2.25;0.65;;;11.90;72.40;;;;;;2343476;53;21415;-74
2022/11/22 04:35:54;;;;;;;2.40;0.68;;;11.90;72.40;;;;;;2342566;53;20930;-74
2022/11/22 04:38:21;;;;;;;2.17;0.68;;;11.90;72.40;;;;;;2330275;53;21001;-74
2022/11/22 04:40:48;;;;;;;3.25;0.75;;;11.80;72.40;;;;;;2327905;53;21503;-74
2022/11/22 04:44:41;;;;;;;3.97;0.73;;;11.80;72.40;;;;;;2328502;53;21994;-74
2022/11/22 04:53:36;;;;;;;2.97;0.98;;;11.80;72.30;;;;;;2355874;53;21037;-74
2022/11/22 04:56:03;;;;;;;5.12;0.88;;;11.80;72.30;;;;;;2432060;52;20962;-74
2022/11/22 04:58:29;;;;;;;6.85;1.02;;;11.80;72.40;;;;;;2430455;52;21493;-74
2022/11/22 05:00:56;;;;;;;5.93;1.00;;;11.80;72.40;;;;;;2356299;53;20906;-74
2022/11/22 05:03:22;;;;;;;3.78;1.10;;;11.70;72.20;;;;;;2357508;53;21057;-74
2022/11/22 05:05:51;;;;;;;2.08;0.55;;;11.70;72.30;;;;;;2354002;53;20974;-74
2022/11/22 05:08:18;;;;;;;6.80;1.10;;;11.70;72.30;;;;;;2607301;52;22067;-74
2022/11/22 05:10:58;;;;;;;2.92;0.80;;;11.70;72.40;;;;;;2356019;53;21058;-74
2022/11/22 05:13:36;;;;;;;3.67;0.88;;;11.70;72.40;;;;;;2489785;52;20930;-74
2022/11/22 05:16:03;;;;;;;3.40;0.98;;;11.70;72.20;;;;;;2355899;53;21535;-75
2022/11/22 05:18:30;;;;;;;5.75;0.90;;;11.60;72.30;;;;;;2429635;52;20922;-74
2022/11/22 05:20:56;;;;;;;4.35;0.95;;;11.60;72.40;;;;;;2436015;52;20925;-75
2022/11/22 05:26:08;;;;;;;3.87;0.98;;;11.60;72.50;;;;;;2364428;52;22066;-74
2022/11/22 05:28:36;;;;;;;4.70;1.12;;;11.60;72.50;;;;;;2356249;53;21033;-74
2022/11/22 05:31:35;;;;;;;4.22;1.00;;;11.60;72.50;;;;;;2478859;52;20930;-75
2022/11/22 05:34:02;;;;;;;6.68;0.80;;;11.60;72.00;;;;;;2356003;53;21124;-74
2022/11/22 05:36:30;;;;;;;3.12;0.85;;;11.60;72.60;;;;;;2356072;53;21544;-74
2022/11/22 05:38:57;;;;;;;4.93;0.93;;;11.60;72.60;;;;;;2355213;53;21593;-74
2022/11/22 05:41:23;;;;;;;3.03;0.75;;;11.60;72.60;;;;;;2390710;52;20939;-74
2022/11/22 05:43:50;;;;;;;5.03;1.00;;;11.60;73.40;;;;;;2355343;53;20950;-74
2022/11/22 05:46:18;;;;;;;2.58;0.90;;;11.60;72.60;;;;;;2356361;53;21034;-75
2022/11/22 05:48:48;;;;;;;4.20;1.10;;;11.60;72.50;;;;;;2341978;53;21023;-74
2022/11/22 05:51:16;;;;;;;6.20;1.10;;;11.50;72.50;;;;;;2408996;52;20961;-74
2022/11/22 05:53:43;;;;;;;6.93;1.00;;;11.60;72.60;;;;;;2355752;53;21046;-74
2022/11/22 05:56:14;;;;;;;2.70;0.85;;;11.50;72.50;;;;;;2415989;52;21016;-74
2022/11/22 05:58:41;;;;;;;4.85;1.10;;;11.60;72.70;;;;;;2355275;53;20954;-74
2022/11/22 06:01:10;;;;;;;4.75;0.93;;;11.50;72.60;;;;;;2355664;53;20938;-74
2022/11/22 06:03:36;;;;;;;4.32;0.77;;;11.50;72.60;;;;;;2491907;52;21002;-74
2022/11/22 06:06:03;;;;;;;3.50;0.98;;;11.50;72.60;;;;;;2356006;53;20959;-75
2022/11/22 06:08:31;;;;;;;6.25;1.05;;;11.60;72.70;;;;;;2606915;52;22055;-74
2022/11/22 06:11:08;;;;;;;7.25;1.05;;;11.60;72.60;;;;;;2356087;53;20950;-74
2022/11/22 06:13:36;;;;;;;4.00;0.70;;;11.60;72.40;;;;;;2355746;53;21576;-75
2022/11/22 06:16:07;;;;;;;4.53;1.00;;;11.50;72.50;;;;;;2355770;53;21057;-74
2022/11/22 06:18:35;;;;;;;4.25;0.70;;;11.50;72.40;;;;;;2355927;53;20998;-74
2022/11/22 06:21:15;;;;;;;4.65;0.82;;;11.50;72.50;;;;;;2483113;52;21933;-74
2022/11/22 06:23:42;;;;;;;3.60;0.80;;;11.50;72.40;;;;;;2355891;53;20922;-74
2022/11/22 06:26:14;;;;;;;4.15;0.98;;;11.50;72.30;;;;;;2355510;53;20939;-74
2022/11/22 06:28:41;;;;;;;4.25;0.82;;;11.50;72.20;;;;;;2356067;53;20899;-74
2022/11/22 06:31:13;;;;;;;4.18;0.93;;;11.50;72.30;;;;;;2356536;53;22030;-74
2022/11/22 06:33:40;;;;;;;4.47;1.10;;;11.50;72.20;;;;;;2365896;52;20947;-74
2022/11/22 06:36:17;;;;;;;3.72;0.95;;;11.50;72.20;;;;;;2356035;53;20979;-75
2022/11/22 06:38:43;;;;;;;4.07;0.90;;;11.50;72.20;;;;;;2356391;53;20923;-75
2022/11/22 06:41:15;;;;;;;4.03;0.90;;;11.40;72.10;;;;;;2356933;53;21366;-74
2022/11/22 06:43:42;;;;;;;4.15;0.90;;;11.40;72.00;;;;;;2353969;53;21124;-74
2022/11/22 06:46:15;;;;;;;4.85;1.02;;;11.40;72.20;;;;;;2465431;52;21046;-74
2022/11/22 06:48:41;;;;;;;4.00;1.10;;;11.40;72.20;;;;;;2367025;52;21321;-74
2022/11/22 06:51:18;;;;;;;4.15;1.15;;;11.40;72.30;;;;;;2356739;53;21014;-74
2022/11/22 06:53:45;;;;;;;4.62;1.40;;;11.40;72.20;;;;;;2461139;52;21427;-74
2022/11/22 06:56:14;;;;;;;5.12;1.10;;;11.40;72.30;;;;;;2357209;53;20977;-74
2022/11/22 06:58:41;;;;;;;3.35;0.90;;;11.40;72.30;;;;;;2356022;53;21160;-74
2022/11/22 07:01:13;;;;;;;4.85;0.80;;;11.30;72.20;;;;;;2356248;53;20931;-75
2022/11/22 07:03:40;;;;;;;6.43;1.37;;;11.30;72.10;;;;;;2356361;53;21045;-74
2022/11/22 07:06:07;;;;;;;4.00;0.90;;;11.30;72.20;;;;;;2356383;53;21470;-74
2022/11/22 07:08:33;;;;;;;4.70;1.10;;;11.30;72.20;;;;;;2385653;52;20938;-74
2022/11/22 07:11:10;;;;;;;7.00;1.27;;;11.30;72.20;;;;;;2356551;53;20942;-74
2022/11/22 07:13:37;;;;;;;4.75;1.40;;;11.30;72.10;;;;;;2355939;53;20918;-74
2022/11/22 07:16:04;;;;;;;5.87;1.58;;;11.30;72.30;;;;;;2587822;52;21935;-74
2022/11/22 07:18:31;;;;;;;3.78;1.00;;;11.20;72.20;;;;;;2356331;53;20918;-75
2022/11/22 07:21:17;;;;;;;4.32;1.17;;;11.20;72.20;;;;;;2355272;53;20938;-75
2022/11/22 07:23:45;;;;;;;2.80;0.77;;;11.30;71.90;;;;;;2356217;53;21411;-74
2022/11/22 07:26:12;;;;;;;4.45;1.23;;;11.20;72.20;;;;;;2356212;53;20922;-74
2022/11/22 07:28:39;;;;;;;6.80;1.40;;;11.20;72.20;;;;;;2350882;53;20925;-74
2022/11/22 07:31:07;;;;;;;5.03;1.65;;;11.20;72.20;;;;;;2350561;53;21037;-74
2022/11/22 07:33:34;;;;;;;11.98;4.37;;;11.20;72.20;;;;;;2351114;53;21817;-74
2022/11/22 07:36:14;;;;;;;8.43;3.20;;;11.20;72.20;;;;;;2443804;52;20946;-74
2022/11/22 07:38:41;;;;;;;5.62;2.35;;;11.20;71.90;;;;;;2361980;52;20938;-74
2022/11/22 07:41:07;;;;;;;5.05;1.60;;;11.20;72.10;;;;;;2386344;52;22055;-74
2022/11/22 07:43:34;;;;;;;5.55;2.10;;;11.20;72.10;;;;;;2601536;52;21046;-74
2022/11/22 07:46:14;;;;;;;5.20;1.40;;;11.20;72.10;;;;;;2352672;53;20954;-74
2022/11/22 07:48:40;;;;;;;3.08;0.95;;;11.20;72.60;;;;;;2351622;53;20943;-74
2022/11/22 07:51:07;;;;;;;5.35;1.73;;;11.20;72.10;;;;;;2357703;52;20951;-74
2022/11/22 07:53:33;;;;;;;4.20;1.30;;;11.20;72.10;;;;;;2352888;53;20926;-74
2022/11/22 07:56:03;;;;;;;3.00;1.02;;;11.20;72.20;;;;;;2360304;52;20942;-74
2022/11/22 07:58:30;;;;;;;3.15;1.00;;;11.10;72.10;;;;;;2352379;53;20932;-74
2022/11/22 08:00:56;;;;;;;5.55;1.08;;;11.20;72.20;;;;;;2472653;52;21101;-74
2022/11/22 08:03:23;;;;;;;5.28;1.08;;;11.20;72.20;;;;;;2345575;53;21870;-73
2022/11/22 08:05:59;;;;;;;6.35;0.95;;;11.20;72.20;;;;;;2392591;52;20990;-74
2022/11/22 08:08:25;;;;;;;3.87;0.90;;;11.20;72.00;;;;;;2350946;53;21854;-75
2022/11/22 08:10:52;;;;;;;8.57;0.98;;;11.20;72.10;;;;;;2351093;53;22209;-74
2022/11/22 08:13:18;;;;;;;1.98;0.85;;;11.20;72.00;;;;;;2595224;52;20937;-74
2022/11/22 08:15:47;;;;;;;7.53;1.20;;;11.20;72.00;;;;;;2370182;52;22060;-73
2022/11/22 08:18:14;;;;;;;2.37;0.75;;;11.20;72.00;;;;;;2362342;52;20914;-74
2022/11/22 08:20:40;;;;;;;4.32;0.90;;;11.20;72.00;;;;;;2354775;53;21431;-74
2022/11/22 08:23:06;;;;;;;4.32;1.00;;;11.20;71.90;;;;;;2427965;52;21010;-74
2022/11/22 08:25:34;;;;;;;4.32;0.77;;;11.10;71.80;;;;;;2354577;53;20950;-74
2022/11/22 08:28:01;;;;;;;4.37;1.12;;;11.10;71.90;;;;;;2489334;52;20918;-74
2022/11/22 08:30:27;;;;;;;4.30;1.05;;;11.20;72.10;;;;;;2346810;53;21337;-74
2022/11/22 08:32:54;;;;;;;6.68;1.20;;;11.10;71.90;;;;;;2364729;53;21025;-74
2022/11/22 08:35:21;;;;;;;4.03;1.12;;;11.10;71.80;;;;;;2352570;53;20939;-75
2022/11/22 08:37:48;;;;;;;3.90;0.80;;;11.10;71.90;;;;;;2406954;52;21581;-75
2022/11/22 08:40:14;;;;;;;4.65;0.85;;;11.20;72.00;;;;;;2422390;52;22177;-75
2022/11/22 08:42:41;;;;;;;7.55;1.12;;;11.10;72.00;;;;;;2352087;53;20985;-74
2022/11/22 08:45:08;;;;;;;3.85;0.80;;;11.10;72.00;;;;;;2351935;53;22011;-74
2022/11/22 08:47:35;;;;;;;4.22;0.80;;;11.10;72.10;;;;;;2351883;53;21666;-74
2022/11/22 08:50:01;;;;;;;5.22;0.82;;;11.20;72.20;;;;;;2544633;52;21607;-74
2022/11/22 08:52:28;;;;;;;4.30;0.90;;;11.20;72.20;;;;;;2352170;53;21202;-75
2022/11/22 08:54:54;;;;;;;3.53;0.70;;;11.20;72.20;;;;;;2352137;53;21101;-74
2022/11/22 08:57:21;;;;;;;4.97;1.10;;;11.20;72.20;;;;;;2350910;53;21574;-74
2022/11/22 08:59:48;;;;;;;3.55;0.70;;;11.20;72.20;;;;;;2349146;53;21081;-74
2022/11/22 09:02:14;;;;;;;5.22;1.02;;;11.20;72.20;;;;;;2351037;53;20946;-74
2022/11/22 09:04:41;;;;;;;7.30;1.12;;;11.20;72.20;;;;;;2331319;53;20966;-73
2022/11/22 09:07:08;;;;;;;7.40;1.30;;;11.20;72.20;;;;;;2424672;52;20954;-74
2022/11/22 09:10:06;;;;;;;5.20;0.90;;;11.20;72.10;;;;;;2378260;52;22236;-74
2022/11/22 09:12:34;;;;;;;5.10;1.20;;;11.30;72.10;;;;;;2350860;53;20933;-73
2022/11/22 09:15:01;;;;;;;4.53;1.00;;;11.30;72.20;;;;;;2436140;52;21002;-74
2022/11/22 09:17:28;;;;;;;5.53;1.30;;;11.30;72.20;;;;;;2350360;53;20906;-75
2022/11/22 09:19:54;;;;;;;6.80;1.33;;;11.30;72.20;;;;;;2500202;52;20959;-74
2022/11/22 09:22:21;;;;;;;4.03;1.12;;;11.30;72.30;;;;;;2350490;53;21301;-75
2022/11/22 09:24:51;;;;;;;5.28;0.77;;;11.30;72.30;;;;;;2348949;52;20926;-75
2022/11/22 09:27:19;;;;;;;4.18;0.90;;;11.40;72.50;;;;;;2573980;52;21328;-74
2022/11/22 09:30:00;;;;;;;5.57;1.20;;;11.30;72.40;;;;;;2519087;52;21604;-73
2022/11/22 09:32:26;;;;;;;4.43;0.85;;;11.40;72.00;;;;;;2440450;52;21926;-74
2022/11/22 09:34:56;;;;;;;5.43;1.10;;;11.40;72.50;;;;;;2451314;52;20963;-74
2022/11/22 09:37:23;;;;;;;9.80;1.10;;;11.40;72.40;;;;;;2354219;53;20986;-74
2022/11/22 09:39:50;;;;;;;3.92;0.77;;;11.50;72.50;;;;;;2361361;52;20906;-74
2022/11/22 09:44:09;;;;;;;5.05;1.23;;;11.50;72.40;;;;;;2365981;52;21081;-74
2022/11/22 09:46:53;;;;;;;4.43;1.27;;;11.50;71.20;;;;;;2601685;52;21049;-74
2022/11/22 09:49:57;;;;;;;4.65;0.95;;;11.50;71.70;;;;;;2352443;53;20930;-75
2022/11/22 09:55:35;;;;;;;3.95;1.05;;;11.50;71.50;;;;;;2360033;52;22203;-75
2022/11/22 09:58:37;;;;;;;4.68;0.70;;;11.60;71.00;;;;;;2348583;53;21435;-74
2022/11/22 10:01:21;;;;;;;6.82;1.10;;;11.60;72.30;;;;;;2438657;52;21838;-75
2022/11/22 10:04:13;;;;;;;6.60;0.70;;;11.60;71.80;;;;;;2347253;53;20961;-75
2022/11/22 10:06:44;;;;;;;5.12;1.17;;;11.60;71.50;;;;;;2424118;52;22020;-74
2022/11/22 10:10:13;;;;;;;5.22;0.95;;;11.60;72.00;;;;;;2598130;52;20914;-74
2022/11/22 10:14:07;;;;;;;3.17;0.70;;;11.70;71.50;;;;;;2361776;52;21976;-74
2022/11/22 10:16:39;;;;;;;3.50;0.93;;;11.60;71.80;;;;;;2345498;53;20950;-74
2022/11/22 10:19:15;;;;;;;2.97;0.75;;;11.70;72.00;;;;;;2535449;52;20987;-73
2022/11/22 10:21:42;;;;;;;5.93;0.93;;;11.70;71.90;;;;;;2482021;52;20947;-74
2022/11/22 10:24:14;;;;;;;6.05;1.05;;;11.70;72.10;;;;;;2349216;53;20938;-75
2022/11/22 10:26:41;;;;;;;7.45;1.10;;;11.70;72.60;;;;;;2350160;53;20986;-74
2022/11/22 10:30:42;;;;;;;4.10;0.80;;;11.70;72.00;;;;;;2429962;52;21053;-74
2022/11/22 10:33:16;;;;;;;2.00;0.55;;;11.80;70.90;;;;;;2347609;53;21357;-75
2022/11/22 10:36:19;;;;;;;3.80;0.70;;;11.80;72.00;;;;;;2346572;53;20962;-75
2022/11/22 10:39:09;;;;;;;4.80;0.95;;;11.80;71.40;;;;;;2345506;53;20966;-74
2022/11/22 10:43:35;;;;;;;4.85;0.82;;;11.80;71.30;;;;;;2347272;53;21029;-74
2022/11/22 10:46:12;;;;;;;3.03;0.70;;;11.80;70.70;;;;;;2349828;53;20914;-74
2022/11/22 10:49:23;;;;;;;3.20;0.60;;;11.80;71.40;;;;;;2530284;52;21029;-74
2022/11/22 10:52:22;;;;;;;5.72;1.05;;;11.80;70.60;;;;;;2355297;52;21406;-75
2022/11/22 10:56:32;;;;;;;4.03;0.60;;;11.90;70.70;;;;;;2390419;52;22209;-73
2022/11/22 10:59:21;;;;;;;2.85;0.70;;;11.80;70.80;;;;;;2444258;52;21467;-74
2022/11/22 11:02:15;;;;;;;2.65;1.00;;;11.80;71.20;;;;;;2373335;52;21049;-74
2022/11/22 11:04:41;;;;;;;4.40;0.70;;;11.80;70.70;;;;;;2354999;53;20954;-75
2022/11/22 11:07:13;;;;;;;4.22;0.70;;;11.80;71.40;;;;;;2443386;52;20930;-74
2022/11/22 11:09:55;;;;;;;3.45;0.70;;;11.80;71.10;;;;;;2480633;52;21309;-74
2022/11/22 11:12:56;;;;;;;1.90;0.52;;;11.80;71.40;;;;;;2592337;52;20930;-74
2022/11/22 11:15:35;;;;;;;1.50;0.50;;;11.80;70.70;;;;;;2428086;52;21398;-74
2022/11/22 11:18:03;;;;;;;4.75;0.60;;;11.80;71.10;;;;;;2360566;52;21254;-74
2022/11/22 11:20:34;;;;;;;1.37;0.47;;;11.80;71.10;;;;;;2492282;52;21405;-74
2022/11/22 11:23:00;;;;;;;3.33;0.68;;;11.80;71.00;;;;;;2336812;53;20938;-74
2022/11/22 11:25:43;;;;;;;2.80;0.60;;;11.80;71.10;;;;;;2493538;52;20951;-74
2022/11/22 11:28:26;;;;;;;1.98;0.60;;;11.80;71.20;;;;;;2541178;52;20935;-75
2022/11/22 11:30:55;;;;;;;1.12;0.40;;;11.80;71.00;;;;;;2600153;52;21045;-74
2022/11/22 11:33:29;;;;;;;4.40;0.70;;;11.90;71.40;;;;;;2511273;52;21029;-74
2022/11/22 11:36:04;;;;;;;4.65;0.77;;;11.90;71.40;;;;;;2351575;52;22170;-73
2022/11/22 11:39:32;;;;;;;3.60;0.60;;;11.90;71.40;;;;;;2533261;52;20977;-75
2022/11/22 11:42:00;;;;;;;1.90;0.45;;;11.90;71.50;;;;;;2390774;52;20923;-74
2022/11/22 11:44:43;;;;;;;2.20;0.50;;;11.90;71.60;;;;;;2396315;52;22127;-74
2022/11/22 11:47:16;;;;;;;2.65;0.60;;;11.90;71.40;;;;;;2373308;52;21427;-74
2022/11/22 11:49:50;;;;;;;2.30;0.60;;;12.00;71.50;;;;;;2490468;52;21522;-74
2022/11/22 11:52:19;;;;;;;2.58;0.65;;;12.00;71.40;;;;;;2431949;52;20942;-74
2022/11/22 11:54:46;;;;;;;2.17;0.45;;;12.00;71.50;;;;;;2410906;52;22211;-73
2022/11/22 11:57:18;;;;;;;3.15;0.60;;;12.00;71.50;;;;;;2362591;52;20986;-74
2022/11/22 11:59:46;;;;;;;1.45;0.47;;;12.00;71.30;;;;;;2322509;53;21744;-74
2022/11/22 12:02:28;;;;;;;2.58;0.60;;;12.00;71.50;;;;;;2329949;53;20982;-75
2022/11/22 12:08:29;;;;;;;2.42;0.70;;;12.00;71.10;;;;;;2324718;53;21698;-73
2022/11/22 12:11:07;;;;;;;1.83;0.70;;;12.10;70.10;;;;;;2334887;52;21971;-74
2022/11/22 12:13:48;;;;;;;7.00;2.55;;;12.10;70.90;;;;;;2564611;52;20926;-73
2022/11/22 12:16:44;;;;;;;6.78;3.00;;;12.10;71.00;;;;;;2379238;52;21070;-74
2022/11/22 12:19:39;;;;;;;8.77;4.25;;;12.20;71.00;;;;;;2322547;53;20978;-74
2022/11/22 12:22:18;;;;;;;6.10;3.05;;;12.20;70.90;;;;;;2429922;52;20903;-73
2022/11/22 12:25:21;;;;;;;5.05;1.87;;;12.20;71.30;;;;;;2347916;53;20936;-74
2022/11/22 12:27:58;;;;;;;7.03;1.70;;;12.20;70.70;;;;;;2554801;52;20905;-73
2022/11/22 12:30:24;;;;;;;2.45;1.08;;;12.20;71.40;;;;;;2315106;53;20956;-74
2022/11/22 12:33:17;;;;;;;2.75;0.90;;;12.20;71.30;;;;;;2513944;52;21909;-74
2022/11/22 12:35:43;;;;;;;;;;;12.20;70.40;;;;;;2362908;52;22034;-74
2022/11/22 12:38:18;;;;;;;3.10;0.80;;;12.20;70.00;;;;;;2341893;52;20177;-74
2022/11/22 12:40:46;;;;;;;2.00;0.60;;;12.30;71.20;;;;;;2319972;53;20937;-74
2022/11/22 12:43:25;;;;;;;3.42;0.95;;;12.20;71.20;;;;;;2338365;53;21707;-74
2022/11/22 12:46:05;;;;;;;2.55;0.98;;;12.20;70.90;;;;;;2557302;52;21635;-74
2022/11/22 12:48:45;;;;;;;2.47;0.62;;;12.20;71.40;;;;;;2407508;52;21053;-74
2022/11/22 12:54:06;;;;;;;2.15;0.50;;;12.20;70.90;;;;;;2339694;53;21463;-74
2022/11/22 12:56:55;;;;;;;1.87;0.45;;;12.30;70.80;;;;;;2433111;52;21203;-74
2022/11/22 12:59:45;;;;;;;0.85;0.40;;;12.30;71.30;;;;;;2590557;52;20969;-74
2022/11/22 13:04:21;;;;;;;1.10;0.30;;;12.30;71.00;;;;;;2350683;52;21400;-74
2022/11/22 13:06:56;;;;;;;4.18;0.93;;;12.30;70.80;;;;;;2346667;53;20939;-73
2022/11/22 13:09:28;;;;;;;3.95;1.20;;;12.40;71.30;;;;;;2358334;52;20962;-74
2022/11/22 13:11:58;;;;;;;3.25;0.95;;;12.40;71.50;;;;;;2345401;53;21218;-74
2022/11/22 13:14:43;;;;;;;1.70;0.60;;;12.40;71.40;;;;;;2342650;53;22047;-73
2022/11/22 13:17:11;;;;;;;3.95;0.80;;;12.40;70.70;;;;;;2373419;52;21038;-75
2022/11/22 13:19:52;;;;;;;2.53;0.40;;;12.40;71.40;;;;;;2339084;53;20941;-74
2022/11/22 13:24:26;;;;;;;1.87;0.65;;;12.40;70.70;;;;;;2339296;53;20958;-74
2022/11/22 13:27:18;;;;;;;2.95;0.50;;;12.50;70.80;;;;;;2556766;52;22085;-74
2022/11/22 13:29:45;;;;;;;2.08;0.68;;;12.50;70.80;;;;;;2335675;53;20903;-74
2022/11/22 13:32:22;;;;;;;2.85;0.50;;;12.50;71.20;;;;;;2332806;53;21029;-74
2022/11/22 13:35:04;;;;;;;1.90;0.55;;;12.50;70.80;;;;;;2327291;53;21038;-73
2022/11/22 13:37:40;;;;;;;1.62;0.50;;;12.50;70.60;;;;;;2303897;53;21104;-74
2022/11/22 13:40:50;;;;;;;1.55;0.47;;;12.50;70.80;;;;;;2309049;53;20917;-74
2022/11/22 13:43:31;;;;;;;3.17;0.50;;;12.50;69.80;;;;;;2384416;52;20945;-74
2022/11/22 13:46:04;;;;;;;1.30;0.50;;;12.50;70.60;;;;;;2312318;54;20949;-73
2022/11/22 13:49:35;;;;;;;0.80;0.40;;;12.50;71.10;;;;;;2306199;53;20972;-74